sensor_id;sensor_type;location;lat;lon;timestamp;pressure;altitude;pressure_sealevel;temperature;humidity
23341;BME280;12239;53.404;23.492;2022-07-22T00:00:49;99873.80;;;17.23;100.00
23341;BME280;12239;53.404;23.492;2022-07-22T00:03:16;99875.80;;;17.20;100.00
23341;BME280;12239;53.404;23.492;2022-07-22T00:05:46;99872.89;;;17.16;100.00
23341;BME280;12239;53.404;23.492;2022-07-22T00:08:16;99869.31;;;17.12;100.00
23341;BME280;12239;53.404;23.492;2022-07-22T00:10:43;99867.93;;;17.10;100.00
23341;BME280;12239;53.404;23.492;2022-07-22T00:13:21;99865.51;;;17.08;100.00
23341;BME280;12239;53.404;23.492;2022-07-22T00:15:51;99867.85;;;17.04;100.00
23341;BME280;12239;53.404;23.492;2022-07-22T00:18:19;99870.21;;;16.99;100.00
23341;BME280;12239;53.404;23.492;2022-07-22T00:20:57;99865.39;;;16.92;100.00
23341;BME280;12239;53.404;23.492;2022-07-22T00:23:27;99866.56;;;16.85;100.00
23341;BME280;12239;53.404;23.492;2022-07-22T00:26:14;99868.54;;;16.77;100.00
23341;BME280;12239;53.404;23.492;2022-07-22T00:29:02;99873.82;;;16.68;100.00
23341;BME280;12239;53.404;23.492;2022-07-22T00:31:49;99872.88;;;16.61;100.00
23341;BME280;12239;53.404;23.492;2022-07-22T00:34:20;99873.33;;;16.53;100.00
23341;BME280;12239;53.404;23.492;2022-07-22T00:37:07;99871.80;;;16.43;100.00
23341;BME280;12239;53.404;23.492;2022-07-22T00:39:34;99872.10;;;16.37;100.00
23341;BME280;12239;53.404;23.492;2022-07-22T00:42:01;99869.70;;;16.32;100.00
23341;BME280;12239;53.404;23.492;2022-07-22T00:44:32;99871.84;;;16.30;100.00
23341;BME280;12239;53.404;23.492;2022-07-22T00:47:19;99871.98;;;16.27;100.00
23341;BME280;12239;53.404;23.492;2022-07-22T00:50:24;99872.12;;;16.25;100.00
23341;BME280;12239;53.404;23.492;2022-07-22T00:52:51;99874.45;;;16.24;100.00
23341;BME280;12239;53.404;23.492;2022-07-22T00:55:19;99870.81;;;16.24;100.00
23341;BME280;12239;53.404;23.492;2022-07-22T00:57:47;99871.04;;;16.28;100.00
23341;BME280;12239;53.404;23.492;2022-07-22T01:00:34;99873.90;;;16.31;100.00
23341;BME280;12239;53.404;23.492;2022-07-22T01:03:10;99875.70;;;16.35;100.00
23341;BME280;12239;53.404;23.492;2022-07-22T01:05:37;99876.56;;;16.35;100.00
23341;BME280;12239;53.404;23.492;2022-07-22T01:08:08;99878.89;;;16.33;100.00
23341;BME280;12239;53.404;23.492;2022-07-22T01:10:35;99877.73;;;16.30;100.00
23341;BME280;12239;53.404;23.492;2022-07-22T01:13:08;99873.66;;;16.31;100.00
23341;BME280;12239;53.404;23.492;2022-07-22T01:15:35;99877.10;;;16.31;100.00
23341;BME280;12239;53.404;23.492;2022-07-22T01:18:05;99875.39;;;16.33;100.00
23341;BME280;12239;53.404;23.492;2022-07-22T01:20:36;99876.72;;;16.35;100.00
23341;BME280;12239;53.404;23.492;2022-07-22T01:23:05;99876.82;;;16.34;100.00
23341;BME280;12239;53.404;23.492;2022-07-22T01:25:33;99877.08;;;16.29;100.00
23341;BME280;12239;53.404;23.492;2022-07-22T01:28:05;99876.16;;;16.28;100.00
23341;BME280;12239;53.404;23.492;2022-07-22T01:30:33;99877.23;;;16.22;100.00
23341;BME280;12239;53.404;23.492;2022-07-22T01:33:00;99872.48;;;16.18;100.00
23341;BME280;12239;53.404;23.492;2022-07-22T01:35:27;99872.75;;;16.16;100.00
23341;BME280;12239;53.404;23.492;2022-07-22T01:37:54;99866.81;;;16.11;100.00
23341;BME280;12239;53.404;23.492;2022-07-22T01:40:22;99863.08;;;16.07;100.00
23341;BME280;12239;53.404;23.492;2022-07-22T01:42:52;99867.61;;;16.05;100.00
23341;BME280;12239;53.404;23.492;2022-07-22T01:45:40;99866.63;;;16.03;100.00
23341;BME280;12239;53.404;23.492;2022-07-22T01:48:27;99867.28;;;16.01;100.00
23341;BME280;12239;53.404;23.492;2022-07-22T01:50:54;99865.40;;;15.97;100.00
23341;BME280;12239;53.404;23.492;2022-07-22T01:53:42;99866.55;;;15.91;100.00
23341;BME280;12239;53.404;23.492;2022-07-22T01:56:09;99865.68;;;15.89;100.00
23341;BME280;12239;53.404;23.492;2022-07-22T01:58:37;99864.66;;;15.87;100.00
23341;BME280;12239;53.404;23.492;2022-07-22T02:01:04;99860.98;;;15.85;100.00
23341;BME280;12239;53.404;23.492;2022-07-22T02:03:39;99858.90;;;15.82;100.00
23341;BME280;12239;53.404;23.492;2022-07-22T02:06:09;99862.85;;;15.80;100.00
23341;BME280;12239;53.404;23.492;2022-07-22T02:08:36;99866.02;;;15.79;100.00
23341;BME280;12239;53.404;23.492;2022-07-22T02:11:06;99870.27;;;15.78;100.00
23341;BME280;12239;53.404;23.492;2022-07-22T02:13:54;99868.14;;;15.74;100.00
23341;BME280;12239;53.404;23.492;2022-07-22T02:16:24;99867.52;;;15.70;100.00
23341;BME280;12239;53.404;23.492;2022-07-22T02:18:55;99865.75;;;15.63;100.00
23341;BME280;12239;53.404;23.492;2022-07-22T02:21:24;99865.27;;;15.59;100.00
23341;BME280;12239;53.404;23.492;2022-07-22T02:23:54;99865.25;;;15.57;100.00
23341;BME280;12239;53.404;23.492;2022-07-22T02:26:42;99870.27;;;15.60;100.00
23341;BME280;12239;53.404;23.492;2022-07-22T02:29:09;99875.20;;;15.65;100.00
23341;BME280;12239;53.404;23.492;2022-07-22T02:31:37;99877.05;;;15.64;100.00
23341;BME280;12239;53.404;23.492;2022-07-22T02:34:16;99873.73;;;15.62;100.00
23341;BME280;12239;53.404;23.492;2022-07-22T02:36:43;99870.14;;;15.60;100.00
23341;BME280;12239;53.404;23.492;2022-07-22T02:39:13;99876.02;;;15.59;100.00
23341;BME280;12239;53.404;23.492;2022-07-22T02:41:40;99878.59;;;15.58;100.00
23341;BME280;12239;53.404;23.492;2022-07-22T02:44:09;99878.84;;;15.55;100.00
23341;BME280;12239;53.404;23.492;2022-07-22T02:46:39;99879.38;;;15.51;100.00
23341;BME280;12239;53.404;23.492;2022-07-22T02:49:26;99881.13;;;15.46;100.00
23341;BME280;12239;53.404;23.492;2022-07-22T02:51:54;99878.73;;;15.45;100.00
23341;BME280;12239;53.404;23.492;2022-07-22T02:54:24;99882.02;;;15.42;100.00
23341;BME280;12239;53.404;23.492;2022-07-22T02:56:54;99881.08;;;15.34;100.00
23341;BME280;12239;53.404;23.492;2022-07-22T02:59:21;99879.63;;;15.28;100.00
23341;BME280;12239;53.404;23.492;2022-07-22T03:01:51;99878.92;;;15.28;100.00
23341;BME280;12239;53.404;23.492;2022-07-22T03:04:18;99878.27;;;15.28;100.00
23341;BME280;12239;53.404;23.492;2022-07-22T03:06:45;99876.84;;;15.28;100.00
23341;BME280;12239;53.404;23.492;2022-07-22T03:09:13;99877.12;;;15.29;100.00
23341;BME280;12239;53.404;23.492;2022-07-22T03:11:40;99874.13;;;15.31;100.00
23341;BME280;12239;53.404;23.492;2022-07-22T03:14:07;99874.39;;;15.33;100.00
23341;BME280;12239;53.404;23.492;2022-07-22T03:16:44;99870.14;;;15.38;100.00
23341;BME280;12239;53.404;23.492;2022-07-22T03:19:11;99868.94;;;15.42;100.00
23341;BME280;12239;53.404;23.492;2022-07-22T03:21:42;99865.31;;;15.46;100.00
23341;BME280;12239;53.404;23.492;2022-07-22T03:24:09;99862.88;;;15.51;100.00
23341;BME280;12239;53.404;23.492;2022-07-22T03:26:36;99864.24;;;15.59;100.00
23341;BME280;12239;53.404;23.492;2022-07-22T03:29:07;99865.98;;;15.65;100.00
23341;BME280;12239;53.404;23.492;2022-07-22T03:31:34;99863.94;;;15.69;100.00
23341;BME280;12239;53.404;23.492;2022-07-22T03:34:12;99864.50;;;15.75;100.00
23341;BME280;12239;53.404;23.492;2022-07-22T03:36:39;99865.44;;;15.81;100.00
23341;BME280;12239;53.404;23.492;2022-07-22T03:39:06;99863.42;;;15.89;100.00
23341;BME280;12239;53.404;23.492;2022-07-22T03:41:34;99860.99;;;15.97;100.00
23341;BME280;12239;53.404;23.492;2022-07-22T03:44:04;99862.46;;;16.04;100.00
23341;BME280;12239;53.404;23.492;2022-07-22T03:46:31;99864.65;;;16.11;100.00
23341;BME280;12239;53.404;23.492;2022-07-22T03:49:19;99866.51;;;16.20;100.00
23341;BME280;12239;53.404;23.492;2022-07-22T03:52:06;99860.74;;;16.32;100.00
23341;BME280;12239;53.404;23.492;2022-07-22T03:54:37;99866.38;;;16.43;100.00
23341;BME280;12239;53.404;23.492;2022-07-22T03:57:07;99858.31;;;16.57;100.00
23341;BME280;12239;53.404;23.492;2022-07-22T03:59:54;99855.39;;;16.82;100.00
23341;BME280;12239;53.404;23.492;2022-07-22T04:02:24;99856.12;;;17.16;100.00
23341;BME280;12239;53.404;23.492;2022-07-22T04:04:51;99853.40;;;17.51;100.00
23341;BME280;12239;53.404;23.492;2022-07-22T04:07:29;99851.30;;;17.91;100.00
23341;BME280;12239;53.404;23.492;2022-07-22T04:09:59;99849.61;;;18.27;100.00
23341;BME280;12239;53.404;23.492;2022-07-22T04:12:32;99854.83;;;18.69;100.00
23341;BME280;12239;53.404;23.492;2022-07-22T04:14:59;99857.75;;;19.07;100.00
23341;BME280;12239;53.404;23.492;2022-07-22T04:17:47;99859.81;;;19.49;100.00
23341;BME280;12239;53.404;23.492;2022-07-22T04:20:14;99859.45;;;19.87;100.00
23341;BME280;12239;53.404;23.492;2022-07-22T04:22:44;99858.75;;;20.25;98.86
23341;BME280;12239;53.404;23.492;2022-07-22T04:25:11;99859.06;;;20.59;97.29
23341;BME280;12239;53.404;23.492;2022-07-22T04:27:59;99856.98;;;20.95;95.36
23341;BME280;12239;53.404;23.492;2022-07-22T04:30:47;99864.23;;;21.22;93.46
23341;BME280;12239;53.404;23.492;2022-07-22T04:33:14;99855.86;;;21.32;92.25
23341;BME280;12239;53.404;23.492;2022-07-22T04:35:41;99854.78;;;21.48;92.04
23341;BME280;12239;53.404;23.492;2022-07-22T04:38:10;99858.73;;;21.70;91.54
23341;BME280;12239;53.404;23.492;2022-07-22T04:40:37;99857.55;;;21.95;90.64
23341;BME280;12239;53.404;23.492;2022-07-22T04:43:07;99860.11;;;22.16;89.35
23341;BME280;12239;53.404;23.492;2022-07-22T04:45:55;99859.49;;;22.25;88.26
23341;BME280;12239;53.404;23.492;2022-07-22T04:48:22;99856.95;;;22.45;88.61
23341;BME280;12239;53.404;23.492;2022-07-22T04:50:52;99855.36;;;22.74;87.84
23341;BME280;12239;53.404;23.492;2022-07-22T04:53:19;99856.73;;;22.98;86.81
23341;BME280;12239;53.404;23.492;2022-07-22T04:55:47;99853.75;;;23.15;85.49
23341;BME280;12239;53.404;23.492;2022-07-22T04:58:14;99851.79;;;23.24;84.83
23341;BME280;12239;53.404;23.492;2022-07-22T05:00:41;99850.92;;;23.35;84.92
23341;BME280;12239;53.404;23.492;2022-07-22T05:03:11;99853.13;;;23.56;84.41
23341;BME280;12239;53.404;23.492;2022-07-22T05:05:38;99859.70;;;23.77;84.14
23341;BME280;12239;53.404;23.492;2022-07-22T05:08:05;99861.74;;;23.87;83.17
23341;BME280;12239;53.404;23.492;2022-07-22T05:10:33;99861.67;;;23.78;82.17
23341;BME280;12239;53.404;23.492;2022-07-22T05:13:03;99862.80;;;23.42;81.76
23341;BME280;12239;53.404;23.492;2022-07-22T05:15:30;99868.02;;;23.07;83.66
23341;BME280;12239;53.404;23.492;2022-07-22T05:17:57;99861.61;;;22.81;84.65
23341;BME280;12239;53.404;23.492;2022-07-22T05:20:28;99857.66;;;22.62;85.98
23341;BME280;12239;53.404;23.492;2022-07-22T05:23:15;99852.02;;;22.54;86.76
23341;BME280;12239;53.404;23.492;2022-07-22T05:25:43;99851.66;;;22.55;87.36
23341;BME280;12239;53.404;23.492;2022-07-22T05:28:10;99851.16;;;22.58;86.96
23341;BME280;12239;53.404;23.492;2022-07-22T05:30:37;99854.02;;;22.55;86.87
23341;BME280;12239;53.404;23.492;2022-07-22T05:33:04;99851.98;;;22.60;87.08
23341;BME280;12239;53.404;23.492;2022-07-22T05:35:31;99853.92;;;22.68;87.08
23341;BME280;12239;53.404;23.492;2022-07-22T05:38:02;99848.29;;;22.78;87.09
23341;BME280;12239;53.404;23.492;2022-07-22T05:40:30;99851.02;;;22.89;88.09
23341;BME280;12239;53.404;23.492;2022-07-22T05:43:00;99852.07;;;23.00;88.29
23341;BME280;12239;53.404;23.492;2022-07-22T05:45:27;99852.88;;;23.11;88.54
23341;BME280;12239;53.404;23.492;2022-07-22T05:47:55;99850.77;;;23.19;88.50
23341;BME280;12239;53.404;23.492;2022-07-22T05:50:42;99850.38;;;23.29;88.57
23341;BME280;12239;53.404;23.492;2022-07-22T05:53:13;99845.80;;;23.38;88.34
23341;BME280;12239;53.404;23.492;2022-07-22T05:55:40;99843.30;;;23.49;87.72
23341;BME280;12239;53.404;23.492;2022-07-22T05:58:10;99845.65;;;23.60;87.47
23341;BME280;12239;53.404;23.492;2022-07-22T06:00:38;99844.92;;;23.69;86.60
23341;BME280;12239;53.404;23.492;2022-07-22T06:03:06;99845.65;;;23.76;86.40
23341;BME280;12239;53.404;23.492;2022-07-22T06:05:33;99849.44;;;23.84;85.28
23341;BME280;12239;53.404;23.492;2022-07-22T06:08:02;99847.20;;;23.86;84.60
23341;BME280;12239;53.404;23.492;2022-07-22T06:10:29;99848.71;;;23.92;84.63
23341;BME280;12239;53.404;23.492;2022-07-22T06:12:57;99845.80;;;23.97;84.83
23341;BME280;12239;53.404;23.492;2022-07-22T06:15:29;99844.09;;;24.04;84.47
23341;BME280;12239;53.404;23.492;2022-07-22T06:18:17;99847.52;;;24.09;84.06
23341;BME280;12239;53.404;23.492;2022-07-22T06:20:46;99843.13;;;24.16;83.64
23341;BME280;12239;53.404;23.492;2022-07-22T06:23:14;99841.04;;;24.24;83.03
23341;BME280;12239;53.404;23.492;2022-07-22T06:25:43;99838.08;;;24.34;82.62
23341;BME280;12239;53.404;23.492;2022-07-22T06:28:11;99839.52;;;24.43;82.32
23341;BME280;12239;53.404;23.492;2022-07-22T06:30:58;99832.78;;;24.53;81.22
23341;BME280;12239;53.404;23.492;2022-07-22T06:33:28;99824.73;;;24.63;81.45
23341;BME280;12239;53.404;23.492;2022-07-22T06:35:56;99823.55;;;24.70;79.89
23341;BME280;12239;53.404;23.492;2022-07-22T06:38:44;99828.69;;;24.72;78.48
23341;BME280;12239;53.404;23.492;2022-07-22T06:41:14;99827.08;;;24.79;78.36
23341;BME280;12239;53.404;23.492;2022-07-22T06:43:44;99833.79;;;24.90;77.26
23341;BME280;12239;53.404;23.492;2022-07-22T06:46:14;99833.87;;;24.99;76.48
23341;BME280;12239;53.404;23.492;2022-07-22T06:48:42;99836.71;;;25.09;74.47
23341;BME280;12239;53.404;23.492;2022-07-22T06:51:09;99839.38;;;25.19;74.72
23341;BME280;12239;53.404;23.492;2022-07-22T06:53:36;99842.83;;;25.29;74.41
23341;BME280;12239;53.404;23.492;2022-07-22T06:56:23;99838.45;;;25.37;74.01
23341;BME280;12239;53.404;23.492;2022-07-22T06:58:51;99840.77;;;25.45;73.48
23341;BME280;12239;53.404;23.492;2022-07-22T07:01:18;99838.63;;;25.54;71.77
23341;BME280;12239;53.404;23.492;2022-07-22T07:03:45;99841.12;;;25.62;71.13
23341;BME280;12239;53.404;23.492;2022-07-22T07:06:13;99838.32;;;25.68;69.03
23341;BME280;12239;53.404;23.492;2022-07-22T07:08:49;99832.93;;;25.75;68.39
23341;BME280;12239;53.404;23.492;2022-07-22T07:11:16;99831.77;;;25.81;68.41
23341;BME280;12239;53.404;23.492;2022-07-22T07:13:46;99827.72;;;25.88;68.42
23341;BME280;12239;53.404;23.492;2022-07-22T07:16:17;99825.87;;;25.95;67.94
23341;BME280;12239;53.404;23.492;2022-07-22T07:19:05;99827.50;;;26.03;67.81
23341;BME280;12239;53.404;23.492;2022-07-22T07:21:32;99824.60;;;26.08;67.80
23341;BME280;12239;53.404;23.492;2022-07-22T07:23:59;99822.73;;;26.16;68.16
23341;BME280;12239;53.404;23.492;2022-07-22T07:26:32;99825.36;;;26.22;67.99
23341;BME280;12239;53.404;23.492;2022-07-22T07:28:59;99822.55;;;26.25;67.07
23341;BME280;12239;53.404;23.492;2022-07-22T07:31:26;99821.36;;;26.26;66.70
23341;BME280;12239;53.404;23.492;2022-07-22T07:33:53;99818.29;;;26.24;67.32
23341;BME280;12239;53.404;23.492;2022-07-22T07:36:21;99818.30;;;26.27;67.48
23341;BME280;12239;53.404;23.492;2022-07-22T07:38:48;99821.77;;;26.31;66.55
23341;BME280;12239;53.404;23.492;2022-07-22T07:41:16;99821.55;;;26.35;67.05
23341;BME280;12239;53.404;23.492;2022-07-22T07:43:46;99827.00;;;26.41;67.10
23341;BME280;12239;53.404;23.492;2022-07-22T07:46:14;99830.17;;;26.49;65.84
23341;BME280;12239;53.404;23.492;2022-07-22T07:48:44;99831.44;;;26.56;66.08
23341;BME280;12239;53.404;23.492;2022-07-22T07:51:11;99834.29;;;26.64;64.85
23341;BME280;12239;53.404;23.492;2022-07-22T07:53:59;99834.02;;;26.72;64.46
23341;BME280;12239;53.404;23.492;2022-07-22T07:56:26;99833.15;;;26.77;64.41
23341;BME280;12239;53.404;23.492;2022-07-22T07:58:53;99834.81;;;26.88;64.41
23341;BME280;12239;53.404;23.492;2022-07-22T08:01:30;99830.81;;;26.87;63.40
23341;BME280;12239;53.404;23.492;2022-07-22T08:03:59;99827.80;;;26.81;64.30
23341;BME280;12239;53.404;23.492;2022-07-22T08:06:27;99824.65;;;26.85;63.85
23341;BME280;12239;53.404;23.492;2022-07-22T08:08:57;99820.87;;;26.92;64.33
23341;BME280;12239;53.404;23.492;2022-07-22T08:11:25;99822.45;;;26.98;64.37
23341;BME280;12239;53.404;23.492;2022-07-22T08:13:52;99821.58;;;27.04;63.74
23341;BME280;12239;53.404;23.492;2022-07-22T08:16:22;99821.41;;;27.08;63.67
23341;BME280;12239;53.404;23.492;2022-07-22T08:19:09;99822.83;;;27.15;63.31
23341;BME280;12239;53.404;23.492;2022-07-22T08:21:57;99823.30;;;27.25;63.31
23341;BME280;12239;53.404;23.492;2022-07-22T08:24:27;99827.25;;;27.35;62.87
23341;BME280;12239;53.404;23.492;2022-07-22T08:26:54;99824.10;;;27.40;61.00
23341;BME280;12239;53.404;23.492;2022-07-22T08:29:21;99827.96;;;27.38;61.80
23341;BME280;12239;53.404;23.492;2022-07-22T08:31:49;99825.84;;;27.40;62.22
23341;BME280;12239;53.404;23.492;2022-07-22T08:34:19;99824.48;;;27.46;61.71
23341;BME280;12239;53.404;23.492;2022-07-22T08:36:46;99826.27;;;27.53;61.50
23341;BME280;12239;53.404;23.492;2022-07-22T08:39:13;99826.19;;;27.58;61.72
23341;BME280;12239;53.404;23.492;2022-07-22T08:41:41;99827.45;;;27.64;62.15
23341;BME280;12239;53.404;23.492;2022-07-22T08:44:30;99828.22;;;27.69;61.47
23341;BME280;12239;53.404;23.492;2022-07-22T08:47:00;99829.64;;;27.75;60.08
23341;BME280;12239;53.404;23.492;2022-07-22T08:49:30;99829.23;;;27.73;59.49
23341;BME280;12239;53.404;23.492;2022-07-22T08:52:17;99825.81;;;27.51;59.51
23341;BME280;12239;53.404;23.492;2022-07-22T08:54:44;99822.83;;;27.27;60.42
23341;BME280;12239;53.404;23.492;2022-07-22T08:57:12;99819.75;;;27.20;61.59
23341;BME280;12239;53.404;23.492;2022-07-22T09:00:00;99816.36;;;27.26;61.15
23341;BME280;12239;53.404;23.492;2022-07-22T09:02:27;99817.45;;;27.26;61.14
23341;BME280;12239;53.404;23.492;2022-07-22T09:05:03;99821.33;;;27.28;61.29
23341;BME280;12239;53.404;23.492;2022-07-22T09:07:34;99822.50;;;27.29;61.24
23341;BME280;12239;53.404;23.492;2022-07-22T09:10:06;99823.48;;;27.38;59.85
23341;BME280;12239;53.404;23.492;2022-07-22T09:12:39;99833.08;;;27.49;57.80
23341;BME280;12239;53.404;23.492;2022-07-22T09:15:16;99834.32;;;27.56;58.77
23341;BME280;12239;53.404;23.492;2022-07-22T09:17:51;99832.34;;;27.61;58.54
23341;BME280;12239;53.404;23.492;2022-07-22T09:20:27;99830.34;;;27.69;58.44
23341;BME280;12239;53.404;23.492;2022-07-22T09:22:55;99829.40;;;27.72;58.62
23341;BME280;12239;53.404;23.492;2022-07-22T09:25:24;99831.27;;;27.79;59.19
23341;BME280;12239;53.404;23.492;2022-07-22T09:28:14;99833.93;;;27.81;56.43
23341;BME280;12239;53.404;23.492;2022-07-22T09:30:45;99834.98;;;27.78;56.63
23341;BME280;12239;53.404;23.492;2022-07-22T09:33:12;99836.08;;;27.81;56.85
23341;BME280;12239;53.404;23.492;2022-07-22T09:35:39;99832.31;;;27.75;56.94
23341;BME280;12239;53.404;23.492;2022-07-22T09:38:10;99834.54;;;27.68;57.78
23341;BME280;12239;53.404;23.492;2022-07-22T09:40:39;99836.29;;;27.58;57.88
23341;BME280;12239;53.404;23.492;2022-07-22T09:43:07;99837.09;;;27.54;58.43
23341;BME280;12239;53.404;23.492;2022-07-22T09:45:44;99834.66;;;27.51;58.52
23341;BME280;12239;53.404;23.492;2022-07-22T09:48:13;99834.02;;;27.52;59.63
23341;BME280;12239;53.404;23.492;2022-07-22T09:50:41;99832.90;;;27.57;60.44
23341;BME280;12239;53.404;23.492;2022-07-22T09:53:08;99829.95;;;27.70;59.47
23341;BME280;12239;53.404;23.492;2022-07-22T09:55:41;99829.27;;;27.88;60.18
23341;BME280;12239;53.404;23.492;2022-07-22T09:58:09;99833.27;;;28.03;59.70
23341;BME280;12239;53.404;23.492;2022-07-22T10:00:42;99834.96;;;28.08;58.52
23341;BME280;12239;53.404;23.492;2022-07-22T10:03:13;99836.95;;;28.07;56.95
23341;BME280;12239;53.404;23.492;2022-07-22T10:05:43;99839.80;;;28.08;57.67
23341;BME280;12239;53.404;23.492;2022-07-22T10:08:11;99836.46;;;28.10;56.27
23341;BME280;12239;53.404;23.492;2022-07-22T10:10:39;99836.40;;;28.11;56.86
23341;BME280;12239;53.404;23.492;2022-07-22T10:13:07;99832.76;;;28.11;58.28
23341;BME280;12239;53.404;23.492;2022-07-22T10:15:35;99832.88;;;28.17;58.61
23341;BME280;12239;53.404;23.492;2022-07-22T10:18:03;99833.61;;;28.29;59.28
23341;BME280;12239;53.404;23.492;2022-07-22T10:20:33;99833.39;;;28.40;59.15
23341;BME280;12239;53.404;23.492;2022-07-22T10:23:00;99829.93;;;28.39;58.67
23341;BME280;12239;53.404;23.492;2022-07-22T10:25:29;99828.64;;;28.27;58.10
23341;BME280;12239;53.404;23.492;2022-07-22T10:28:01;99825.23;;;28.14;58.88
23341;BME280;12239;53.404;23.492;2022-07-22T10:30:50;99825.05;;;28.21;59.73
23341;BME280;12239;53.404;23.492;2022-07-22T10:33:24;99823.39;;;28.38;59.14
23341;BME280;12239;53.404;23.492;2022-07-22T10:35:57;99815.61;;;28.53;59.49
23341;BME280;12239;53.404;23.492;2022-07-22T10:38:25;99821.81;;;28.62;59.24
23341;BME280;12239;53.404;23.492;2022-07-22T10:40:53;99819.91;;;28.66;58.68
23341;BME280;12239;53.404;23.492;2022-07-22T10:43:22;99816.77;;;28.72;58.36
23341;BME280;12239;53.404;23.492;2022-07-22T10:45:50;99815.35;;;28.82;58.15
23341;BME280;12239;53.404;23.492;2022-07-22T10:48:45;99812.09;;;28.84;57.40
23341;BME280;12239;53.404;23.492;2022-07-22T10:51:12;99815.52;;;28.81;56.86
23341;BME280;12239;53.404;23.492;2022-07-22T10:54:00;99810.58;;;28.76;56.31
23341;BME280;12239;53.404;23.492;2022-07-22T10:56:29;99811.57;;;28.69;55.58
23341;BME280;12239;53.404;23.492;2022-07-22T10:59:01;99805.97;;;28.67;57.03
23341;BME280;12239;53.404;23.492;2022-07-22T11:01:36;99807.15;;;28.69;57.25
23341;BME280;12239;53.404;23.492;2022-07-22T11:04:10;99806.24;;;28.74;57.21
23341;BME280;12239;53.404;23.492;2022-07-22T11:06:38;99802.20;;;28.85;56.34
23341;BME280;12239;53.404;23.492;2022-07-22T11:09:09;99803.08;;;28.92;54.85
23341;BME280;12239;53.404;23.492;2022-07-22T11:11:38;99802.77;;;28.92;54.56
23341;BME280;12239;53.404;23.492;2022-07-22T11:14:21;99800.64;;;28.91;52.68
23341;BME280;12239;53.404;23.492;2022-07-22T11:17:11;99796.50;;;28.87;47.44
23341;BME280;12239;53.404;23.492;2022-07-22T11:19:40;99793.75;;;28.84;47.59
23341;BME280;12239;53.404;23.492;2022-07-22T11:22:08;99792.16;;;28.84;47.94
23341;BME280;12239;53.404;23.492;2022-07-22T11:24:56;99787.06;;;28.90;49.14
23341;BME280;12239;53.404;23.492;2022-07-22T11:27:24;99783.13;;;28.96;50.62
23341;BME280;12239;53.404;23.492;2022-07-22T11:29:53;99781.77;;;29.06;50.92
23341;BME280;12239;53.404;23.492;2022-07-22T11:32:21;99782.58;;;29.23;49.23
23341;BME280;12239;53.404;23.492;2022-07-22T11:34:48;99775.42;;;29.43;48.77
23341;BME280;12239;53.404;23.492;2022-07-22T11:37:16;99770.61;;;29.62;48.25
23341;BME280;12239;53.404;23.492;2022-07-22T11:39:45;99771.45;;;29.78;47.61
23341;BME280;12239;53.404;23.492;2022-07-22T11:42:13;99770.82;;;29.92;46.64
23341;BME280;12239;53.404;23.492;2022-07-22T11:44:43;99771.94;;;30.04;46.37
23341;BME280;12239;53.404;23.492;2022-07-22T11:47:13;99767.27;;;30.15;45.53
23341;BME280;12239;53.404;23.492;2022-07-22T11:49:40;99768.45;;;30.22;46.12
23341;BME280;12239;53.404;23.492;2022-07-22T11:52:08;99764.35;;;30.26;45.62
23341;BME280;12239;53.404;23.492;2022-07-22T11:54:42;99767.98;;;30.31;44.91
23341;BME280;12239;53.404;23.492;2022-07-22T11:57:12;99764.75;;;30.36;44.23
23341;BME280;12239;53.404;23.492;2022-07-22T11:59:43;99760.50;;;30.39;44.52
23341;BME280;12239;53.404;23.492;2022-07-22T12:02:11;99754.80;;;30.38;44.41
23341;BME280;12239;53.404;23.492;2022-07-22T12:04:39;99747.08;;;30.41;44.24
23341;BME280;12239;53.404;23.492;2022-07-22T12:07:09;99744.03;;;30.44;43.42
23341;BME280;12239;53.404;23.492;2022-07-22T12:09:37;99742.48;;;30.48;43.16
23341;BME280;12239;53.404;23.492;2022-07-22T12:12:05;99744.77;;;30.54;41.92
23341;BME280;12239;53.404;23.492;2022-07-22T12:14:33;99745.35;;;30.61;42.32
23341;BME280;12239;53.404;23.492;2022-07-22T12:17:02;99743.27;;;30.73;40.84
23341;BME280;12239;53.404;23.492;2022-07-22T12:19:30;99747.42;;;30.80;37.73
23341;BME280;12239;53.404;23.492;2022-07-22T12:21:58;99744.69;;;30.87;37.59
23341;BME280;12239;53.404;23.492;2022-07-22T12:24:25;99744.11;;;30.93;37.39
23341;BME280;12239;53.404;23.492;2022-07-22T12:26:56;99742.88;;;31.00;36.72
23341;BME280;12239;53.404;23.492;2022-07-22T12:29:41;99742.46;;;31.07;36.66
23341;BME280;12239;53.404;23.492;2022-07-22T12:32:10;99739.45;;;31.06;36.22
23341;BME280;12239;53.404;23.492;2022-07-22T12:34:41;99739.42;;;31.08;36.01
23341;BME280;12239;53.404;23.492;2022-07-22T12:37:11;99734.95;;;31.05;35.79
23341;BME280;12239;53.404;23.492;2022-07-22T12:39:39;99738.18;;;30.96;35.63
23341;BME280;12239;53.404;23.492;2022-07-22T12:42:16;99738.45;;;30.89;36.66
23341;BME280;12239;53.404;23.492;2022-07-22T12:44:50;99736.84;;;30.96;36.15
23341;BME280;12239;53.404;23.492;2022-07-22T12:47:39;99735.33;;;31.07;35.87
23341;BME280;12239;53.404;23.492;2022-07-22T12:50:22;99723.45;;;31.17;34.70
23341;BME280;12239;53.404;23.492;2022-07-22T12:52:59;99724.33;;;31.30;33.79
23341;BME280;12239;53.404;23.492;2022-07-22T12:55:47;99715.67;;;31.38;33.96
23341;BME280;12239;53.404;23.492;2022-07-22T12:58:18;99716.84;;;31.43;34.42
23341;BME280;12239;53.404;23.492;2022-07-22T13:00:46;99713.02;;;31.47;34.86
23341;BME280;12239;53.404;23.492;2022-07-22T13:03:14;99712.92;;;31.56;34.41
23341;BME280;12239;53.404;23.492;2022-07-22T13:05:41;99712.55;;;31.60;33.10
23341;BME280;12239;53.404;23.492;2022-07-22T13:08:09;99708.11;;;31.60;32.22
23341;BME280;12239;53.404;23.492;2022-07-22T13:10:40;99701.33;;;31.56;33.07